Time;durP1;ratioP1;P1;durP2;ratioP2;P2;SDS_P1;SDS_P2;PMS_P1;PMS_P2;Temp;Humidity;BMP_temperature;BMP_pressure;BME280_temperature;BME280_humidity;BME280_pressure;Samples;Min_cycle;Max_cycle;Signal;HPM_P1;HPM_P2
2022/12/17 13:08:19;;;;;;;28.60;17.90;;;-0.70;99.90;;;;;;5029693;28;20220;-81
2022/12/17 13:10:47;;;;;;;28.57;17.60;;;-0.80;99.90;;;;;;5028073;28;20227;-81
2022/12/17 13:13:26;;;;;;;22.03;15.77;;;-0.80;99.90;;;;;;5028353;28;20221;-83
2022/12/17 13:15:55;;;;;;;24.43;16.33;;;-0.90;99.90;;;;;;5036084;28;20224;-81
2022/12/17 13:18:32;;;;;;;24.10;15.80;;;-0.90;99.90;;;;;;5021723;28;20318;-79
2022/12/17 13:21:01;;;;;;;23.97;15.87;;;-1.00;99.90;;;;;;5036668;28;20234;-80
2022/12/17 13:23:32;;;;;;;24.50;16.77;;;-1.00;99.90;;;;;;5027195;28;20574;-80
2022/12/17 13:26:16;;;;;;;25.93;17.27;;;-1.10;99.90;;;;;;5021785;28;20227;-80
2022/12/17 13:28:48;;;;;;;23.97;15.80;;;-1.10;99.90;;;;;;5019212;28;20228;-81
2022/12/17 13:31:20;;;;;;;25.53;16.10;;;-1.10;99.90;;;;;;5027939;28;20318;-80
2022/12/17 13:33:58;;;;;;;25.70;16.53;;;-1.10;99.90;;;;;;5042968;28;20282;-81
2022/12/17 13:36:31;;;;;;;25.83;16.70;;;-1.10;99.90;;;;;;5023545;28;20240;-80
2022/12/17 13:39:03;;;;;;;24.17;17.07;;;-1.20;99.90;;;;;;5022735;28;20237;-81
2022/12/17 13:41:32;;;;;;;24.53;15.63;;;-1.20;99.90;;;;;;5028860;28;20233;-81
2022/12/17 13:44:02;;;;;;;24.23;16.30;;;-1.20;99.90;;;;;;5032966;28;20229;-80
2022/12/17 13:46:37;;;;;;;23.27;15.23;;;-1.30;99.90;;;;;;5029618;28;22119;-81
2022/12/17 13:49:14;;;;;;;22.97;15.27;;;-1.30;99.90;;;;;;5032519;28;20449;-80
2022/12/17 13:51:41;;;;;;;27.33;16.03;;;-1.30;99.90;;;;;;5030040;28;20226;-82
2022/12/17 13:54:16;;;;;;;22.03;14.67;;;-1.30;99.90;;;;;;5031632;28;20303;-81
2022/12/17 13:56:42;;;;;;;21.40;15.40;;;-1.40;99.90;;;;;;5039410;28;20583;-83
2022/12/17 13:59:18;;;;;;;22.57;16.27;;;-1.40;99.90;;;;;;5035040;28;20227;-80
2022/12/17 14:01:46;;;;;;;24.03;15.67;;;-1.40;99.90;;;;;;5029414;28;20862;-81
2022/12/17 14:04:22;;;;;;;21.93;15.07;;;-1.50;99.90;;;;;;5014722;28;20220;-80
2022/12/17 14:06:50;;;;;;;23.60;14.77;;;-1.50;99.90;;;;;;5039375;28;20226;-80
2022/12/17 14:09:19;;;;;;;22.70;14.67;;;-1.50;99.90;;;;;;5025363;28;20234;-80
2022/12/17 14:14:35;;;;;;;22.03;15.07;;;-1.50;99.90;;;;;;5030612;28;20715;-82
2022/12/17 14:17:02;;;;;;;22.20;14.50;;;-1.60;99.90;;;;;;5036769;28;20220;-80
2022/12/17 14:19:32;;;;;;;22.80;14.47;;;-1.60;99.90;;;;;;5033161;28;20242;-79
2022/12/17 14:22:00;;;;;;;24.00;14.53;;;-1.60;99.90;;;;;;5027634;28;20234;-79
2022/12/17 14:24:28;;;;;;;21.63;13.87;;;-1.70;99.90;;;;;;5019888;28;20242;-80
2022/12/17 14:26:58;;;;;;;21.83;13.83;;;-1.70;99.90;;;;;;5030996;28;20247;-80
2022/12/17 14:29:27;;;;;;;21.20;15.07;;;-1.70;99.90;;;;;;5029038;28;20228;-83
2022/12/17 14:31:56;;;;;;;25.63;15.20;;;-1.80;99.90;;;;;;5028251;28;20677;-79
2022/12/17 14:34:23;;;;;;;22.93;14.67;;;-1.80;99.90;;;;;;5028778;28;20227;-82
2022/12/17 14:36:56;;;;;;;28.00;15.83;;;-1.80;99.90;;;;;;5024828;28;20245;-80
2022/12/17 14:39:26;;;;;;;22.23;15.00;;;-1.90;99.90;;;;;;5025572;28;20233;-82
2022/12/17 14:44:49;;;;;;;25.70;14.73;;;-2.00;99.90;;;;;;5022520;28;20226;-79
2022/12/17 14:47:20;;;;;;;24.63;15.57;;;-2.00;99.90;;;;;;5036398;28;20281;-78
2022/12/17 14:49:57;;;;;;;27.20;16.03;;;-2.00;99.90;;;;;;5022271;28;20850;-80
2022/12/17 14:52:35;;;;;;;21.63;15.63;;;-2.10;99.90;;;;;;5024836;28;20299;-81
2022/12/17 14:55:02;;;;;;;21.57;13.93;;;-2.10;99.90;;;;;;5036471;28;20255;-82
2022/12/17 14:57:28;;;;;;;24.43;13.57;;;-2.20;99.90;;;;;;5032746;28;20226;-80
2022/12/17 14:59:55;;;;;;;20.53;14.07;;;-2.30;99.90;;;;;;5024356;28;20238;-82
2022/12/17 15:02:25;;;;;;;20.87;14.07;;;-2.30;99.90;;;;;;5036170;28;20226;-79
2022/12/17 15:04:55;;;;;;;27.93;14.63;;;-2.40;99.90;;;;;;5023690;28;20230;-78
2022/12/17 15:07:25;;;;;;;37.63;33.07;;;-2.40;99.90;;;;;;5025336;28;20226;-81
2022/12/17 15:09:54;;;;;;;190.80;149.70;;;-2.50;99.90;;;;;;5019904;28;20229;-80
2022/12/17 15:12:22;;;;;;;48.20;28.33;;;-2.50;99.90;;;;;;5020812;28;20287;-79
2022/12/17 15:14:49;;;;;;;278.80;183.13;;;-2.60;99.90;;;;;;5030228;28;20817;-81
2022/12/17 15:17:16;;;;;;;45.57;32.57;;;-2.60;99.90;;;;;;5018760;28;20229;-81
2022/12/17 15:19:43;;;;;;;205.07;154.20;;;-2.70;99.90;;;;;;5020299;28;20415;-81
2022/12/17 15:22:15;;;;;;;30.50;22.67;;;-2.70;99.90;;;;;;5025715;28;20267;-79
2022/12/17 15:24:42;;;;;;;133.00;91.67;;;-2.80;99.90;;;;;;5020334;28;20223;-83
2022/12/17 15:27:12;;;;;;;28.97;16.53;;;-2.80;99.90;;;;;;5018649;28;20219;-81
2022/12/17 15:29:39;;;;;;;31.73;20.43;;;-2.90;99.90;;;;;;5027446;28;20698;-79
2022/12/17 15:32:06;;;;;;;48.37;30.67;;;-2.90;99.90;;;;;;5026883;28;20229;-79
2022/12/17 15:34:33;;;;;;;76.43;46.50;;;-2.90;99.90;;;;;;5028766;28;20636;-80
2022/12/17 15:37:00;;;;;;;40.20;24.53;;;-2.90;99.90;;;;;;5037683;28;20227;-80
2022/12/17 15:39:29;;;;;;;21.23;13.03;;;-3.00;99.90;;;;;;5034920;28;20223;-82
2022/12/17 15:44:41;;;;;;;47.40;33.10;;;-3.00;99.90;;;;;;5022856;28;20253;-80
2022/12/17 15:47:08;;;;;;;55.17;37.87;;;-3.10;99.90;;;;;;5017816;28;20246;-80
2022/12/17 15:49:34;;;;;;;37.47;22.83;;;-3.10;99.90;;;;;;5025464;28;20874;-82
2022/12/17 15:52:01;;;;;;;48.93;35.00;;;-3.10;99.90;;;;;;5030813;28;20220;-80
2022/12/17 15:54:28;;;;;;;29.80;20.37;;;-3.10;99.90;;;;;;5035917;28;20237;-79
2022/12/17 15:56:55;;;;;;;38.13;23.43;;;-3.10;99.90;;;;;;5021406;28;20218;-81
2022/12/17 15:59:22;;;;;;;69.03;40.00;;;-3.10;99.90;;;;;;5017628;28;20272;-81
2022/12/17 16:01:50;;;;;;;122.90;68.00;;;-3.10;99.90;;;;;;5029611;28;20236;-81
2022/12/17 16:04:17;;;;;;;32.67;18.33;;;-3.10;99.90;;;;;;5029383;28;20257;-78
2022/12/17 16:06:43;;;;;;;72.97;39.63;;;-3.10;99.90;;;;;;5030523;28;20239;-80
2022/12/17 16:09:10;;;;;;;46.43;29.83;;;-3.20;99.90;;;;;;5025065;28;20732;-79
2022/12/17 16:11:37;;;;;;;93.97;57.10;;;-3.20;99.90;;;;;;5012506;28;20229;-78
2022/12/17 16:14:03;;;;;;;32.47;20.03;;;-3.20;99.90;;;;;;5007914;28;20223;-78
2022/12/17 16:16:30;;;;;;;46.73;28.37;;;-3.20;99.90;;;;;;5017403;28;20232;-78
2022/12/17 16:19:00;;;;;;;34.80;21.93;;;-3.20;99.90;;;;;;5016157;28;20241;-78
2022/12/17 16:21:27;;;;;;;45.67;26.43;;;-3.20;99.90;;;;;;5031430;28;20256;-78
2022/12/17 16:23:54;;;;;;;40.93;23.43;;;-3.20;99.90;;;;;;5026676;28;20225;-78
2022/12/17 16:26:21;;;;;;;48.43;30.30;;;-3.20;99.90;;;;;;5020070;28;20223;-78
2022/12/17 16:28:47;;;;;;;25.80;14.80;;;-3.20;99.90;;;;;;5015944;28;20237;-78
2022/12/17 16:31:15;;;;;;;27.73;18.37;;;-3.30;99.90;;;;;;5016399;28;20234;-78
2022/12/17 16:33:43;;;;;;;21.47;13.53;;;-3.30;99.90;;;;;;5032835;28;20333;-78
2022/12/17 16:36:15;;;;;;;23.17;15.53;;;-3.30;99.90;;;;;;5029949;28;20228;-78
2022/12/17 16:38:43;;;;;;;20.63;13.43;;;-3.30;99.90;;;;;;5028166;28;20230;-78
2022/12/17 16:41:10;;;;;;;153.80;106.97;;;-3.40;99.90;;;;;;5018076;28;20273;-78
2022/12/17 16:43:37;;;;;;;76.10;68.70;;;-3.40;99.90;;;;;;5033463;28;20940;-78
2022/12/17 16:46:05;;;;;;;386.10;225.43;;;-3.40;99.90;;;;;;5035166;28;20248;-82
2022/12/17 16:48:36;;;;;;;91.87;53.67;;;-3.40;99.90;;;;;;5025261;28;20229;-78
2022/12/17 16:51:17;;;;;;;43.50;30.37;;;-3.50;99.90;;;;;;5033614;28;20722;-78
2022/12/17 16:53:43;;;;;;;27.90;19.90;;;-3.50;99.90;;;;;;5024184;28;20307;-78
2022/12/17 16:56:16;;;;;;;24.37;16.73;;;-3.60;99.90;;;;;;5025699;28;20237;-78
2022/12/17 16:58:42;;;;;;;22.53;16.93;;;-3.70;99.90;;;;;;5038400;28;20239;-78
2022/12/17 17:01:10;;;;;;;47.93;28.07;;;-3.70;99.90;;;;;;5020881;28;20736;-78
2022/12/17 17:03:39;;;;;;;70.73;41.93;;;-3.80;99.90;;;;;;5031211;28;20266;-78
2022/12/17 17:06:06;;;;;;;34.77;27.33;;;-3.80;99.90;;;;;;5023719;28;20223;-78
2022/12/17 17:08:35;;;;;;;24.03;16.70;;;-3.90;99.90;;;;;;5042297;28;20753;-78
2022/12/17 17:11:07;;;;;;;30.43;23.20;;;-3.90;99.90;;;;;;5024480;28;20228;-80
2022/12/17 17:13:34;;;;;;;24.23;16.03;;;-3.90;99.90;;;;;;5039144;28;20867;-80
2022/12/17 17:16:01;;;;;;;29.00;22.40;;;-3.90;99.90;;;;;;5026957;28;20432;-80
2022/12/17 17:18:27;;;;;;;31.13;23.83;;;-3.90;99.90;;;;;;5021096;28;20226;-79
2022/12/17 17:20:54;;;;;;;25.33;17.27;;;-4.00;99.90;;;;;;5038856;28;20220;-79
2022/12/17 17:23:21;;;;;;;25.43;15.97;;;-4.00;99.90;;;;;;5022559;28;20226;-79
2022/12/17 17:25:49;;;;;;;25.63;17.43;;;-4.10;99.90;;;;;;5020478;28;20307;-79
2022/12/17 17:28:16;;;;;;;26.43;16.67;;;-4.10;99.90;;;;;;5040730;28;20225;-81
2022/12/17 17:30:42;;;;;;;26.47;16.27;;;-4.10;99.90;;;;;;5020420;28;20225;-79
2022/12/17 17:33:09;;;;;;;30.20;18.17;;;-4.20;99.90;;;;;;5031319;28;20222;-79
2022/12/17 17:35:36;;;;;;;26.40;15.83;;;-4.20;99.90;;;;;;5032942;28;20285;-79
2022/12/17 17:38:02;;;;;;;23.77;16.90;;;-4.30;99.90;;;;;;5026807;28;20225;-79
2022/12/17 17:40:29;;;;;;;24.97;16.57;;;-4.30;99.90;;;;;;5030287;28;20822;-79
2022/12/17 17:42:57;;;;;;;24.43;16.17;;;-4.30;99.90;;;;;;5032959;28;20232;-79
2022/12/17 17:45:24;;;;;;;29.43;17.60;;;-4.40;99.90;;;;;;5029580;28;22795;-79
2022/12/17 17:47:50;;;;;;;29.30;19.27;;;-4.40;99.90;;;;;;5026343;28;20235;-79
2022/12/17 17:50:17;;;;;;;26.63;16.37;;;-4.40;99.90;;;;;;5029328;28;20235;-80
2022/12/17 17:52:44;;;;;;;21.93;15.40;;;-4.40;99.90;;;;;;5026732;28;20270;-79
2022/12/17 17:55:10;;;;;;;30.30;21.13;;;-4.40;99.90;;;;;;5028416;28;20228;-79
2022/12/17 17:57:37;;;;;;;33.97;19.33;;;-4.50;99.90;;;;;;5035746;28;20263;-79
2022/12/17 18:00:07;;;;;;;22.77;16.83;;;-4.50;99.90;;;;;;5021057;28;20324;-78
2022/12/17 18:02:36;;;;;;;31.73;22.47;;;-4.60;99.90;;;;;;5038271;28;20865;-79
2022/12/17 18:05:03;;;;;;;27.67;18.47;;;-4.60;99.90;;;;;;5036665;28;20723;-78
2022/12/17 18:07:30;;;;;;;38.03;28.83;;;-4.60;99.90;;;;;;5046298;28;20232;-78
2022/12/17 18:09:58;;;;;;;28.57;18.40;;;-4.70;99.90;;;;;;5033627;28;20323;-79
2022/12/17 18:15:11;;;;;;;29.37;17.57;;;-4.70;99.90;;;;;;5027922;28;20228;-79
2022/12/17 18:17:38;;;;;;;30.03;19.23;;;-4.80;99.90;;;;;;5035325;28;20221;-79
2022/12/17 18:20:05;;;;;;;30.77;18.77;;;-4.80;99.90;;;;;;5034332;28;20234;-79
2022/12/17 18:22:32;;;;;;;132.10;79.00;;;-4.90;99.90;;;;;;5030992;28;20231;-79
2022/12/17 18:24:59;;;;;;;39.83;24.00;;;-4.90;99.90;;;;;;5048147;28;20894;-79
2022/12/17 18:27:25;;;;;;;30.50;21.33;;;-4.90;99.90;;;;;;5023978;28;22378;-79
2022/12/17 18:29:52;;;;;;;29.93;19.03;;;-5.00;99.90;;;;;;5023373;28;20713;-79
2022/12/17 18:32:20;;;;;;;31.83;18.60;;;-5.00;99.90;;;;;;5048091;28;20943;-79
2022/12/17 18:34:47;;;;;;;187.17;69.77;;;-5.10;99.90;;;;;;5037701;28;20277;-79
2022/12/17 18:37:13;;;;;;;65.63;32.67;;;-5.10;99.90;;;;;;5031351;28;20234;-78
2022/12/17 18:39:40;;;;;;;63.97;30.70;;;-5.10;99.90;;;;;;5027070;28;20239;-78
2022/12/17 18:44:52;;;;;;;38.27;22.23;;;-5.20;99.90;;;;;;5041508;28;20225;-79
2022/12/17 18:47:20;;;;;;;36.60;20.63;;;-5.20;99.90;;;;;;5039148;28;20241;-78
2022/12/17 18:49:47;;;;;;;35.13;21.73;;;-5.30;99.90;;;;;;5036390;28;20222;-78
2022/12/17 18:52:14;;;;;;;34.33;20.73;;;-5.30;99.90;;;;;;5027332;28;20625;-78
2022/12/17 18:54:41;;;;;;;35.83;20.73;;;-5.30;99.90;;;;;;5034831;28;20995;-78
2022/12/17 18:57:07;;;;;;;32.67;21.90;;;-5.40;99.90;;;;;;5033370;28;20774;-78
2022/12/17 18:59:34;;;;;;;44.10;24.57;;;-5.40;99.90;;;;;;5033378;28;20685;-78
2022/12/17 19:02:01;;;;;;;39.90;24.53;;;-5.40;99.90;;;;;;5033451;28;20647;-78
2022/12/17 19:04:29;;;;;;;35.07;22.80;;;-5.40;99.90;;;;;;5019552;28;20232;-78
2022/12/17 19:06:55;;;;;;;35.60;21.80;;;-5.40;99.90;;;;;;5028401;28;20234;-78
2022/12/17 19:09:24;;;;;;;37.53;23.70;;;-5.50;99.90;;;;;;5034129;28;20223;-78
2022/12/17 19:11:52;;;;;;;41.63;26.07;;;-5.50;99.90;;;;;;5025483;28;20253;-79
2022/12/17 19:14:21;;;;;;;36.57;22.17;;;-5.50;99.90;;;;;;5031153;28;20237;-79
2022/12/17 19:16:48;;;;;;;38.43;22.77;;;-5.60;99.90;;;;;;5033283;28;20249;-78
2022/12/17 19:19:15;;;;;;;51.60;29.17;;;-5.60;99.90;;;;;;5038334;28;20777;-78
2022/12/17 19:21:44;;;;;;;45.97;30.50;;;-5.60;99.90;;;;;;5042110;28;20220;-78
2022/12/17 19:24:13;;;;;;;39.87;25.90;;;-5.60;99.90;;;;;;5045222;28;20228;-78
2022/12/17 19:26:40;;;;;;;41.80;26.73;;;-5.60;99.90;;;;;;5034026;28;20308;-78
2022/12/17 19:29:09;;;;;;;40.10;24.10;;;-5.60;99.90;;;;;;5030195;28;20885;-78
2022/12/17 19:31:36;;;;;;;58.50;34.63;;;-5.60;99.90;;;;;;5029445;28;20223;-78
2022/12/17 19:34:05;;;;;;;39.90;24.60;;;-5.60;99.90;;;;;;5028922;28;20227;-78
2022/12/17 19:36:34;;;;;;;80.53;53.63;;;-5.60;99.90;;;;;;5031208;28;20814;-78
2022/12/17 19:39:04;;;;;;;62.03;38.30;;;-5.60;99.90;;;;;;5041102;28;20320;-78
2022/12/17 19:41:32;;;;;;;58.83;36.80;;;-5.60;99.90;;;;;;5035541;28;20584;-78
2022/12/17 19:44:01;;;;;;;82.27;46.30;;;-5.70;99.90;;;;;;5026609;28;20235;-78
2022/12/17 19:46:29;;;;;;;59.90;39.97;;;-5.70;99.90;;;;;;5040128;28;20313;-79
2022/12/17 19:48:56;;;;;;;52.07;33.53;;;-5.70;99.90;;;;;;5027637;28;20231;-78
2022/12/17 19:51:25;;;;;;;57.47;37.67;;;-5.70;99.90;;;;;;5023091;28;20225;-79
2022/12/17 19:53:52;;;;;;;62.67;36.97;;;-5.70;99.90;;;;;;5034821;28;20960;-78
2022/12/17 19:56:22;;;;;;;215.57;97.90;;;-5.70;99.90;;;;;;5029737;28;20274;-78
2022/12/17 19:58:51;;;;;;;86.23;44.57;;;-5.70;99.90;;;;;;5033637;28;20309;-78
2022/12/17 20:01:20;;;;;;;62.30;38.77;;;-5.70;99.90;;;;;;5034824;28;20407;-78
2022/12/17 20:03:47;;;;;;;57.33;32.47;;;-5.80;99.90;;;;;;5025597;28;20733;-82
2022/12/17 20:06:16;;;;;;;59.23;32.83;;;-5.80;99.90;;;;;;5021177;28;20244;-80
2022/12/17 20:08:44;;;;;;;47.27;28.40;;;-5.80;99.90;;;;;;5025868;28;20230;-78
2022/12/17 20:13:54;;;;;;;50.13;31.10;;;-5.80;99.90;;;;;;5036428;28;20333;-78
2022/12/17 20:16:21;;;;;;;46.37;26.43;;;-5.80;99.90;;;;;;5026999;28;20252;-79
2022/12/17 20:18:48;;;;;;;43.10;25.20;;;-5.90;99.90;;;;;;5032454;28;20602;-78
2022/12/17 20:21:15;;;;;;;44.03;22.63;;;-5.90;99.90;;;;;;5021061;28;20745;-78
2022/12/17 20:23:42;;;;;;;34.27;21.60;;;-5.90;99.90;;;;;;5024023;28;20229;-78
2022/12/17 20:26:10;;;;;;;40.17;21.50;;;-5.90;99.90;;;;;;5024087;28;20219;-79
2022/12/17 20:28:37;;;;;;;39.07;23.53;;;-6.00;99.90;;;;;;5026976;28;20254;-79
2022/12/17 20:31:06;;;;;;;37.10;23.43;;;-6.00;99.90;;;;;;5026290;28;20230;-78
2022/12/17 20:33:33;;;;;;;31.83;19.97;;;-6.00;99.90;;;;;;5032431;28;20232;-78
2022/12/17 20:36:04;;;;;;;35.83;22.77;;;-6.00;99.90;;;;;;5023330;28;20250;-78
2022/12/17 20:38:30;;;;;;;39.03;21.57;;;-6.00;99.90;;;;;;5031446;28;20235;-77
2022/12/17 20:40:57;;;;;;;35.07;21.80;;;-6.00;99.90;;;;;;5028613;28;20222;-78
2022/12/17 20:43:24;;;;;;;30.57;18.67;;;-6.00;99.90;;;;;;5031026;28;20227;-78
2022/12/17 20:45:54;;;;;;;31.23;19.13;;;-6.00;99.90;;;;;;5029602;28;20226;-77
2022/12/17 20:48:22;;;;;;;30.53;20.27;;;-6.10;99.90;;;;;;5040592;28;20231;-80
2022/12/17 20:50:49;;;;;;;29.23;19.03;;;-6.10;99.90;;;;;;5056873;28;20281;-78
2022/12/17 20:53:15;;;;;;;31.27;17.67;;;-6.00;99.90;;;;;;5036557;28;20222;-79
2022/12/17 20:55:42;;;;;;;31.00;20.03;;;-6.10;99.90;;;;;;5044643;28;20226;-79
2022/12/17 20:58:09;;;;;;;35.40;21.37;;;-6.10;99.90;;;;;;5021636;28;20226;-79
2022/12/17 21:00:36;;;;;;;30.27;18.87;;;-6.10;99.90;;;;;;5019375;28;20230;-79
2022/12/17 21:03:03;;;;;;;32.00;19.43;;;-6.10;99.90;;;;;;5021225;28;20303;-79
2022/12/17 21:05:31;;;;;;;29.47;18.10;;;-6.10;99.90;;;;;;5027241;28;20255;-78
2022/12/17 21:07:58;;;;;;;34.23;20.63;;;-6.10;99.90;;;;;;5045774;28;20226;-79
2022/12/17 21:10:25;;;;;;;52.93;34.37;;;-6.10;99.90;;;;;;5031253;28;21147;-77
2022/12/17 21:15:36;;;;;;;31.27;19.03;;;-6.10;99.90;;;;;;5011154;28;20235;-78
2022/12/17 21:18:03;;;;;;;34.70;18.57;;;-6.20;99.90;;;;;;5034871;28;20230;-78
2022/12/17 21:20:32;;;;;;;37.50;21.77;;;-6.20;99.90;;;;;;5028617;28;20230;-78
2022/12/17 21:22:58;;;;;;;35.47;23.30;;;-6.20;99.90;;;;;;5023443;28;20227;-77
2022/12/17 21:25:25;;;;;;;34.93;18.90;;;-6.20;99.90;;;;;;5032341;28;20232;-76
2022/12/17 21:27:52;;;;;;;26.90;18.63;;;-6.30;99.90;;;;;;5021656;28;20227;-77
2022/12/17 21:30:19;;;;;;;28.63;18.50;;;-6.30;99.90;;;;;;5027224;28;20558;-77
2022/12/17 21:32:45;;;;;;;29.60;18.93;;;-6.30;99.90;;;;;;5028357;28;20316;-77
2022/12/17 21:35:12;;;;;;;30.10;18.63;;;-6.40;99.90;;;;;;5034110;28;20230;-77
2022/12/17 21:37:40;;;;;;;31.30;19.00;;;-6.40;99.90;;;;;;5013984;28;20951;-77
2022/12/17 21:40:08;;;;;;;31.47;20.33;;;-6.40;99.90;;;;;;5014475;28;20320;-77
2022/12/17 21:45:19;;;;;;;30.70;17.50;;;-6.50;99.90;;;;;;5013022;28;20238;-78
2022/12/17 21:47:45;;;;;;;78.27;45.13;;;-6.50;99.90;;;;;;5011905;28;20234;-77
2022/12/17 21:50:12;;;;;;;53.93;34.97;;;-6.60;99.90;;;;;;5030852;28;20258;-78
2022/12/17 21:52:41;;;;;;;30.03;20.30;;;-6.60;99.90;;;;;;5021122;28;20698;-78
2022/12/17 21:55:08;;;;;;;35.30;22.07;;;-6.60;99.90;;;;;;5033022;28;20222;-77
2022/12/17 21:57:35;;;;;;;42.50;24.23;;;-6.70;99.90;;;;;;5035367;28;20759;-77
2022/12/17 22:00:02;;;;;;;36.57;20.40;;;-6.70;99.90;;;;;;5032089;28;20244;-77
2022/12/17 22:02:31;;;;;;;44.87;25.87;;;-6.70;99.90;;;;;;5024978;28;20594;-78
2022/12/17 22:04:57;;;;;;;59.73;34.20;;;-6.70;99.90;;;;;;5014034;28;20224;-78
2022/12/17 22:07:27;;;;;;;82.37;47.87;;;-6.80;99.90;;;;;;5019472;28;20261;-78
2022/12/17 22:09:55;;;;;;;61.00;35.70;;;-6.80;99.90;;;;;;5026368;28;20236;-77
2022/12/17 22:15:08;;;;;;;39.97;22.80;;;-6.80;99.90;;;;;;5032750;28;20305;-77
2022/12/17 22:17:35;;;;;;;37.37;20.20;;;-6.70;99.90;;;;;;5019327;28;20239;-77
2022/12/17 22:20:02;;;;;;;26.53;17.70;;;-6.70;99.90;;;;;;5027876;28;20239;-77
2022/12/17 22:22:28;;;;;;;27.10;16.47;;;-6.70;99.90;;;;;;5023952;28;20899;-76
2022/12/17 22:24:59;;;;;;;26.80;16.57;;;-6.70;99.90;;;;;;5024898;28;20605;-76
2022/12/17 22:27:26;;;;;;;34.93;18.37;;;-6.70;99.90;;;;;;5029796;28;20231;-76
2022/12/17 22:35:22;;;;;;;26.87;16.70;;;-6.60;99.90;;;;;;5001714;28;20226;-77
2022/12/17 22:37:48;;;;;;;28.87;15.80;;;-6.70;99.90;;;;;;5006968;28;20298;-77
2022/12/17 22:40:17;;;;;;;45.17;17.80;;;-6.60;99.90;;;;;;5021798;28;20326;-76
2022/12/17 22:45:28;;;;;;;28.07;16.60;;;-6.60;99.90;;;;;;5032858;28;20237;-77
2022/12/17 22:47:55;;;;;;;29.00;16.37;;;-6.60;99.90;;;;;;5015258;28;20220;-76
2022/12/17 22:50:21;;;;;;;29.97;16.17;;;-6.60;99.90;;;;;;5038911;28;20313;-76
2022/12/17 22:52:48;;;;;;;29.73;16.13;;;-6.60;99.90;;;;;;5038163;28;20226;-76
2022/12/17 22:55:16;;;;;;;27.80;16.63;;;-6.60;99.90;;;;;;5038154;28;20734;-76
2022/12/17 22:57:43;;;;;;;43.87;18.70;;;-6.70;99.90;;;;;;5024715;28;20250;-76
2022/12/17 23:00:21;;;;;;;27.43;15.97;;;-6.70;99.90;;;;;;5026107;28;20218;-76
2022/12/17 23:02:47;;;;;;;24.87;15.37;;;-6.70;99.90;;;;;;5039905;28;20241;-76
2022/12/17 23:05:14;;;;;;;30.27;16.03;;;-6.70;99.90;;;;;;5031134;28;20224;-76
2022/12/17 23:07:41;;;;;;;25.30;16.10;;;-6.80;99.90;;;;;;5027127;28;20247;-76
2022/12/17 23:10:08;;;;;;;26.63;16.60;;;-6.80;99.90;;;;;;5028423;28;20227;-76
2022/12/17 23:12:52;;;;;;;24.73;14.93;;;-6.80;99.90;;;;;;5025455;28;20267;-75
2022/12/17 23:15:27;;;;;;;25.90;16.23;;;-6.80;99.90;;;;;;5038309;28;20236;-76
2022/12/17 23:17:55;;;;;;;26.77;16.70;;;-6.90;99.90;;;;;;5029372;28;20230;-76
2022/12/17 23:20:23;;;;;;;29.63;16.27;;;-6.90;99.90;;;;;;5027212;28;20227;-76
2022/12/17 23:22:50;;;;;;;28.30;16.63;;;-6.90;99.90;;;;;;5037859;28;20229;-76
2022/12/17 23:25:17;;;;;;;25.77;15.77;;;-6.90;99.90;;;;;;5014207;28;20314;-75
2022/12/17 23:27:46;;;;;;;28.23;15.37;;;-6.90;99.90;;;;;;5029208;28;20901;-76
2022/12/17 23:30:14;;;;;;;24.83;15.13;;;-7.00;99.90;;;;;;5030659;28;20256;-76
2022/12/17 23:32:41;;;;;;;26.97;16.67;;;-7.00;99.90;;;;;;5030402;28;20812;-76
2022/12/17 23:35:09;;;;;;;24.60;15.03;;;-7.00;99.90;;;;;;5026981;28;20220;-76
2022/12/17 23:37:36;;;;;;;24.93;15.33;;;-7.00;99.90;;;;;;5029830;28;20228;-76
2022/12/17 23:40:04;;;;;;;108.27;26.03;;;-7.00;99.90;;;;;;5021348;28;20834;-75
2022/12/17 23:42:31;;;;;;;41.20;19.27;;;-7.00;99.90;;;;;;5032456;28;20220;-76
2022/12/17 23:44:59;;;;;;;26.47;16.33;;;-7.00;99.90;;;;;;5034898;28;20218;-75
2022/12/17 23:47:26;;;;;;;28.90;15.40;;;-7.00;99.90;;;;;;5021100;28;20226;-75
2022/12/17 23:49:52;;;;;;;25.17;14.83;;;-7.00;99.90;;;;;;5028543;28;20242;-76
2022/12/17 23:52:19;;;;;;;25.93;15.37;;;-7.10;99.90;;;;;;5033766;28;20719;-75
2022/12/17 23:54:46;;;;;;;35.07;16.17;;;-7.10;99.90;;;;;;5030671;28;20338;-75
2022/12/17 23:57:12;;;;;;;39.73;15.03;;;-7.10;99.90;;;;;;5028025;28;20648;-75
2022/12/17 23:59:39;;;;;;;24.43;14.13;;;-7.10;99.90;;;;;;5016970;28;20227;-75
